Time;durP1;ratioP1;P1;durP2;ratioP2;P2;SDS_P1;SDS_P2;PMS_P1;PMS_P2;Temp;Humidity;BMP_temperature;BMP_pressure;BME280_temperature;BME280_humidity;BME280_pressure;Samples;Min_cycle;Max_cycle;Signal;HPM_P1;HPM_P2
2022/06/15 00:01:59;;;;;;;13.50;4.67;;;14.40;99.90;;;;;;4842104;29;20201;-60
2022/06/15 00:04:26;;;;;;;8.20;4.33;;;14.40;99.90;;;;;;4842228;29;20213;-59
2022/06/15 00:06:52;;;;;;;9.87;4.90;;;14.30;99.90;;;;;;4840952;29;20238;-59
2022/06/15 00:09:18;;;;;;;10.60;4.30;;;14.30;99.90;;;;;;4841793;29;20190;-59
2022/06/15 00:11:44;;;;;;;11.20;5.37;;;14.20;99.90;;;;;;4826081;29;20193;-59
2022/06/15 00:14:18;;;;;;;7.77;4.60;;;14.20;99.90;;;;;;4841721;29;20182;-59
2022/06/15 00:16:43;;;;;;;13.00;4.70;;;14.10;99.90;;;;;;4842097;29;20277;-59
2022/06/15 00:19:10;;;;;;;8.57;4.13;;;14.00;99.90;;;;;;4841845;29;20265;-58
2022/06/15 00:21:35;;;;;;;13.67;5.03;;;13.90;99.90;;;;;;4842061;29;20190;-59
2022/06/15 00:24:01;;;;;;;13.23;4.63;;;13.90;99.90;;;;;;4842024;29;20218;-58
2022/06/15 00:26:28;;;;;;;8.10;4.03;;;13.90;99.90;;;;;;4841541;29;20282;-59
2022/06/15 00:28:54;;;;;;;10.07;4.00;;;13.80;99.90;;;;;;4841678;29;20563;-59
2022/06/15 00:31:21;;;;;;;10.37;4.40;;;13.70;99.90;;;;;;4841227;29;20194;-57
2022/06/15 00:33:47;;;;;;;8.90;4.97;;;13.70;99.90;;;;;;4842331;29;20269;-58
2022/06/15 00:36:16;;;;;;;14.13;4.80;;;13.60;99.90;;;;;;4841381;29;20189;-59
2022/06/15 00:38:43;;;;;;;12.70;5.23;;;13.50;99.90;;;;;;4841797;29;20663;-58
2022/06/15 00:41:13;;;;;;;9.63;4.03;;;13.50;99.90;;;;;;4841738;29;20635;-59
2022/06/15 00:43:45;;;;;;;6.90;3.80;;;13.60;99.90;;;;;;4825088;29;20602;-58
2022/06/15 00:46:33;;;;;;;10.93;4.90;;;13.70;99.90;;;;;;4841134;29;20422;-59
2022/06/15 00:49:18;;;;;;;9.53;4.47;;;13.80;99.90;;;;;;4841734;29;20196;-59
2022/06/15 00:51:46;;;;;;;9.93;3.83;;;13.80;99.90;;;;;;4841670;29;20190;-60
2022/06/15 00:54:13;;;;;;;8.27;3.77;;;13.90;99.90;;;;;;4824932;29;20658;-58
2022/06/15 00:56:39;;;;;;;7.93;4.23;;;13.90;99.90;;;;;;4841603;29;20190;-60
2022/06/15 00:59:15;;;;;;;8.10;4.27;;;13.90;99.90;;;;;;4840991;29;20718;-60
2022/06/15 01:01:41;;;;;;;9.33;4.23;;;13.90;99.90;;;;;;4824884;29;20197;-60
2022/06/15 01:04:07;;;;;;;9.33;4.20;;;14.00;99.90;;;;;;4855675;29;20196;-60
2022/06/15 01:07:09;;;;;;;7.27;4.53;;;14.00;99.90;;;;;;4859662;29;20542;-60
2022/06/15 01:09:41;;;;;;;10.67;4.00;;;14.00;99.90;;;;;;4859443;29;20228;-60
2022/06/15 01:12:20;;;;;;;12.13;4.50;;;14.10;99.90;;;;;;4840988;29;20242;-61
2022/06/15 01:14:55;;;;;;;7.30;4.10;;;14.10;99.90;;;;;;4841191;29;20182;-60
2022/06/15 01:17:36;;;;;;;11.27;3.83;;;14.10;99.90;;;;;;4841276;29;20189;-59
2022/06/15 01:20:02;;;;;;;9.83;4.37;;;14.10;99.90;;;;;;4841305;29;20190;-58
2022/06/15 01:22:55;;;;;;;8.07;4.10;;;14.10;99.90;;;;;;4841001;29;20195;-58
2022/06/15 01:25:45;;;;;;;8.73;4.20;;;14.10;99.90;;;;;;4840667;29;20276;-58
2022/06/15 01:28:35;;;;;;;14.03;4.10;;;14.10;99.90;;;;;;4848453;29;20236;-60
2022/06/15 01:31:09;;;;;;;12.43;4.00;;;13.90;99.90;;;;;;4859488;29;20188;-59
2022/06/15 01:33:46;;;;;;;7.20;4.27;;;13.80;99.90;;;;;;4859385;29;20237;-59
2022/06/15 01:36:33;;;;;;;8.63;4.20;;;13.70;99.90;;;;;;4859281;29;20549;-59
2022/06/15 01:39:03;;;;;;;10.60;4.73;;;13.60;99.90;;;;;;4859557;29;20184;-59
2022/06/15 01:41:33;;;;;;;11.30;4.60;;;13.60;99.90;;;;;;4859281;29;20180;-59
2022/06/15 01:44:08;;;;;;;14.47;4.77;;;13.50;99.90;;;;;;4842727;29;20196;-59
2022/06/15 01:46:39;;;;;;;13.67;4.77;;;13.40;99.90;;;;;;4859018;29;20192;-59
2022/06/15 01:49:08;;;;;;;14.30;5.63;;;13.40;99.90;;;;;;4859372;29;20192;-59
2022/06/15 01:51:40;;;;;;;15.97;5.90;;;13.40;99.90;;;;;;4859790;29;20186;-59
2022/06/15 01:54:11;;;;;;;10.03;5.50;;;13.30;99.90;;;;;;4859304;29;20185;-59
2022/06/15 01:56:45;;;;;;;18.53;5.47;;;13.30;99.90;;;;;;4859250;29;20190;-59
2022/06/15 01:59:19;;;;;;;10.33;5.60;;;13.20;99.90;;;;;;4859107;29;20181;-59
2022/06/15 02:01:56;;;;;;;17.83;7.20;;;13.20;99.90;;;;;;4859306;29;20211;-59
2022/06/15 02:04:44;;;;;;;14.07;5.83;;;13.10;99.90;;;;;;4875199;29;20676;-59
2022/06/15 02:07:25;;;;;;;10.67;5.63;;;13.10;99.90;;;;;;4877267;29;20256;-58
2022/06/15 02:10:11;;;;;;;8.87;4.80;;;13.10;99.90;;;;;;4875292;29;20296;-59
2022/06/15 02:12:44;;;;;;;12.03;4.93;;;13.00;99.90;;;;;;4848292;29;20257;-58
2022/06/15 02:15:15;;;;;;;11.53;6.70;;;12.90;99.90;;;;;;4862170;29;20193;-59
2022/06/15 02:17:46;;;;;;;11.97;5.43;;;12.90;99.90;;;;;;4862635;29;20555;-57
2022/06/15 02:20:20;;;;;;;11.63;4.63;;;12.80;99.90;;;;;;4862213;29;20191;-60
2022/06/15 02:22:49;;;;;;;15.53;5.00;;;12.80;99.90;;;;;;4862636;29;20186;-58
2022/06/15 02:25:18;;;;;;;10.77;4.43;;;12.80;99.90;;;;;;4862193;29;20216;-58
2022/06/15 02:27:46;;;;;;;9.10;4.73;;;12.90;99.90;;;;;;4862272;29;20229;-60
2022/06/15 02:30:22;;;;;;;17.10;5.03;;;12.90;99.90;;;;;;4862213;29;20646;-60
2022/06/15 02:32:50;;;;;;;9.67;4.30;;;13.00;99.90;;;;;;4862260;29;20709;-59
2022/06/15 02:35:17;;;;;;;9.43;4.03;;;13.00;99.90;;;;;;4862188;29;20185;-59
2022/06/15 02:37:44;;;;;;;10.17;4.00;;;13.10;99.90;;;;;;4862275;29;20234;-60
2022/06/15 02:40:20;;;;;;;8.03;3.73;;;13.10;99.90;;;;;;4862260;29;20225;-58
2022/06/15 02:42:46;;;;;;;10.60;4.57;;;13.10;99.90;;;;;;4862290;29;20261;-60
2022/06/15 02:45:18;;;;;;;19.27;5.27;;;13.10;99.90;;;;;;4861943;29;20256;-60
2022/06/15 02:47:45;;;;;;;14.23;4.37;;;13.10;99.90;;;;;;4862040;29;20189;-59
2022/06/15 02:50:13;;;;;;;14.90;5.50;;;13.20;99.90;;;;;;4844956;29;20196;-62
2022/06/15 02:52:47;;;;;;;26.27;6.13;;;13.20;99.90;;;;;;4862234;29;20181;-59
2022/06/15 02:55:16;;;;;;;11.97;4.10;;;13.20;99.90;;;;;;4861524;29;20188;-59
2022/06/15 02:57:46;;;;;;;11.40;3.93;;;13.20;99.90;;;;;;4862109;29;20177;-59
2022/06/15 03:00:13;;;;;;;8.73;4.17;;;13.20;99.90;;;;;;4844842;29;20196;-62
2022/06/15 03:02:39;;;;;;;10.93;4.30;;;13.30;99.90;;;;;;4865117;29;20192;-59
2022/06/15 03:05:05;;;;;;;11.17;3.80;;;13.30;99.90;;;;;;4879914;29;20575;-60
2022/06/15 03:07:31;;;;;;;9.30;4.33;;;13.40;99.90;;;;;;4879943;29;20196;-59
2022/06/15 03:09:57;;;;;;;6.93;4.47;;;13.40;99.90;;;;;;4860284;29;20190;-59
2022/06/15 03:12:23;;;;;;;9.23;3.87;;;13.40;99.90;;;;;;4845085;29;20201;-59
2022/06/15 03:14:48;;;;;;;5.67;3.80;;;13.40;99.90;;;;;;4861682;29;20653;-59
2022/06/15 03:17:14;;;;;;;10.23;4.57;;;13.50;99.90;;;;;;4861200;29;20200;-59
2022/06/15 03:19:40;;;;;;;9.90;4.10;;;13.50;99.90;;;;;;4861253;29;20208;-58
2022/06/15 03:22:06;;;;;;;7.50;4.00;;;13.50;99.90;;;;;;4860891;29;20283;-58
2022/06/15 03:24:32;;;;;;;9.30;8.00;;;13.60;99.90;;;;;;4861109;29;20543;-58
2022/06/15 03:26:57;;;;;;;5.60;3.60;;;13.70;99.90;;;;;;4860970;29;20265;-59
2022/06/15 03:29:24;;;;;;;8.03;4.13;;;13.70;99.90;;;;;;4843815;29;20702;-59
2022/06/15 03:31:49;;;;;;;11.47;4.20;;;13.70;99.90;;;;;;4842756;29;20188;-60
2022/06/15 03:34:15;;;;;;;12.97;4.40;;;13.70;99.90;;;;;;4842138;29;20737;-59
2022/06/15 03:36:41;;;;;;;9.67;4.70;;;13.80;99.90;;;;;;4842355;29;20846;-59
2022/06/15 03:39:07;;;;;;;14.27;4.90;;;13.80;99.90;;;;;;4842896;29;20250;-59
2022/06/15 03:41:33;;;;;;;9.03;4.80;;;13.90;99.90;;;;;;4842273;29;20190;-60
2022/06/15 03:43:59;;;;;;;13.97;5.47;;;14.00;99.90;;;;;;4842073;29;20190;-59
2022/06/15 03:46:25;;;;;;;16.03;5.10;;;14.00;99.90;;;;;;4841655;29;20229;-60
2022/06/15 03:48:50;;;;;;;10.90;4.80;;;14.10;99.90;;;;;;4842094;29;20661;-59
2022/06/15 03:51:16;;;;;;;11.60;5.67;;;14.20;99.90;;;;;;4841983;29;20300;-59
2022/06/15 03:53:42;;;;;;;12.03;5.30;;;14.40;99.90;;;;;;4842035;29;20184;-59
2022/06/15 03:56:08;;;;;;;14.87;5.40;;;14.50;99.90;;;;;;4842268;29;20207;-60
2022/06/15 03:58:34;;;;;;;11.20;5.10;;;14.70;99.90;;;;;;4842267;29;20640;-60
2022/06/15 04:00:59;;;;;;;10.47;5.33;;;14.70;99.90;;;;;;4842214;29;20261;-59
2022/06/15 04:03:25;;;;;;;12.03;5.50;;;14.70;99.90;;;;;;4850993;29;20193;-59
2022/06/15 04:05:54;;;;;;;9.63;5.63;;;14.80;99.90;;;;;;4843873;29;20217;-59
2022/06/15 04:08:37;;;;;;;8.30;5.47;;;14.80;99.90;;;;;;4860382;29;20191;-58
2022/06/15 04:11:04;;;;;;;12.17;5.13;;;14.70;99.90;;;;;;4848417;29;20181;-59
2022/06/15 04:13:30;;;;;;;9.33;4.83;;;14.60;99.90;;;;;;4841719;29;20900;-59
2022/06/15 04:15:56;;;;;;;10.60;4.57;;;14.60;99.90;;;;;;4825483;29;20205;-59
2022/06/15 04:18:22;;;;;;;11.80;5.17;;;14.60;99.90;;;;;;4841546;29;20196;-60
2022/06/15 04:20:48;;;;;;;8.03;4.30;;;14.70;99.90;;;;;;4825527;29;20197;-59
2022/06/15 04:23:16;;;;;;;8.90;3.33;;;14.70;99.90;;;;;;4841783;29;20201;-61
2022/06/15 04:25:51;;;;;;;7.40;3.87;;;14.80;99.90;;;;;;4825031;29;20231;-60
2022/06/15 04:28:19;;;;;;;17.57;4.30;;;15.00;99.90;;;;;;4849750;29;20638;-62
2022/06/15 04:30:44;;;;;;;13.33;3.97;;;15.30;99.90;;;;;;4859702;29;20214;-59
2022/06/15 04:33:11;;;;;;;10.90;4.53;;;15.30;99.90;;;;;;4860284;29;20648;-60
2022/06/15 04:35:37;;;;;;;15.20;3.87;;;15.40;99.90;;;;;;4842061;29;20215;-60
2022/06/15 04:38:04;;;;;;;11.17;4.30;;;15.30;99.90;;;;;;4859902;29;20236;-60
2022/06/15 04:40:31;;;;;;;7.33;4.20;;;15.30;99.90;;;;;;4859108;29;20557;-58
2022/06/15 04:42:57;;;;;;;17.00;4.40;;;15.30;99.90;;;;;;4859172;29;20609;-60
2022/06/15 04:45:23;;;;;;;6.37;3.73;;;15.30;99.90;;;;;;4858708;29;20224;-60
2022/06/15 04:47:49;;;;;;;9.20;3.73;;;15.40;99.90;;;;;;4859055;29;20247;-58
2022/06/15 04:50:15;;;;;;;5.80;3.50;;;15.40;99.90;;;;;;4858668;29;20234;-60
2022/06/15 04:52:43;;;;;;;8.77;4.43;;;15.40;99.90;;;;;;4858606;29;20224;-59
2022/06/15 04:55:11;;;;;;;9.70;3.40;;;15.20;99.90;;;;;;4842521;29;20197;-60
2022/06/15 04:57:37;;;;;;;12.20;4.10;;;15.20;99.90;;;;;;4858948;29;20514;-59
2022/06/15 05:00:06;;;;;;;14.27;4.23;;;15.10;99.90;;;;;;4842480;29;20225;-58
2022/06/15 05:02:32;;;;;;;8.53;4.07;;;15.10;99.90;;;;;;4861451;29;20190;-58
2022/06/15 05:04:59;;;;;;;16.03;5.30;;;15.20;99.90;;;;;;4877537;29;20307;-60
2022/06/15 05:07:25;;;;;;;6.63;4.23;;;15.30;99.90;;;;;;4868265;29;20665;-61
2022/06/15 05:09:51;;;;;;;8.60;4.70;;;15.50;99.90;;;;;;4858519;29;20224;-60
2022/06/15 05:12:18;;;;;;;11.13;6.60;;;15.80;99.90;;;;;;4858594;29;20200;-61
2022/06/15 05:14:47;;;;;;;11.57;4.80;;;16.00;99.90;;;;;;4858413;29;20242;-61
2022/06/15 05:17:17;;;;;;;9.67;5.00;;;16.00;99.90;;;;;;4842343;29;20189;-61
2022/06/15 05:19:43;;;;;;;18.17;5.07;;;16.00;99.90;;;;;;4841959;29;20185;-60
2022/06/15 05:22:09;;;;;;;19.80;5.53;;;15.90;99.90;;;;;;4858275;29;20286;-60
2022/06/15 05:24:36;;;;;;;13.90;5.33;;;16.00;99.90;;;;;;4857835;29;20241;-63
2022/06/15 05:27:02;;;;;;;9.40;4.83;;;16.10;99.90;;;;;;4853506;29;20287;-60
2022/06/15 05:29:28;;;;;;;8.20;4.97;;;16.30;99.90;;;;;;4836582;29;20268;-59
2022/06/15 05:31:54;;;;;;;13.77;5.40;;;16.50;99.90;;;;;;4832677;29;20245;-60
2022/06/15 05:34:20;;;;;;;9.20;5.20;;;16.50;99.90;;;;;;4824229;29;20660;-63
2022/06/15 05:36:47;;;;;;;10.33;4.93;;;16.80;99.90;;;;;;4827739;29;20656;-59
2022/06/15 05:39:13;;;;;;;11.13;4.43;;;17.10;99.90;;;;;;4826501;29;20543;-58
2022/06/15 05:41:40;;;;;;;12.67;5.10;;;17.00;99.90;;;;;;4829116;29;20210;-60
2022/06/15 05:46:58;;;;;;;7.90;4.60;;;16.90;99.90;;;;;;4825014;29;20216;-59
2022/06/15 05:49:24;;;;;;;10.33;4.83;;;16.90;99.90;;;;;;4825406;29;20273;-61
2022/06/15 05:51:50;;;;;;;16.40;5.17;;;17.10;99.90;;;;;;4824863;29;20206;-61
2022/06/15 05:54:16;;;;;;;10.00;5.43;;;17.10;99.90;;;;;;4836119;29;20219;-61
2022/06/15 05:56:42;;;;;;;13.13;5.90;;;16.90;99.90;;;;;;4832398;29;20211;-60
2022/06/15 05:59:08;;;;;;;16.13;5.57;;;16.90;99.90;;;;;;4830503;29;20285;-59
2022/06/15 06:01:36;;;;;;;13.27;4.87;;;16.70;99.90;;;;;;4841184;29;20290;-59
2022/06/15 06:04:02;;;;;;;9.43;4.93;;;16.70;99.90;;;;;;4839907;29;20198;-59
2022/06/15 06:06:30;;;;;;;12.93;5.77;;;16.70;99.90;;;;;;4838384;29;20256;-61
2022/06/15 06:08:56;;;;;;;14.83;5.37;;;16.70;99.90;;;;;;4842072;29;20686;-61
2022/06/15 06:11:22;;;;;;;20.40;5.67;;;16.60;99.90;;;;;;4842318;29;20198;-66
2022/06/15 06:13:48;;;;;;;7.53;4.40;;;16.70;99.90;;;;;;4823066;29;20556;-60
2022/06/15 06:16:15;;;;;;;10.63;4.57;;;17.00;99.90;;;;;;4822117;29;20185;-61
2022/06/15 06:18:41;;;;;;;10.07;3.40;;;17.40;99.90;;;;;;4838085;29;20208;-63
2022/06/15 06:21:08;;;;;;;8.93;3.40;;;17.70;99.90;;;;;;4826864;29;20200;-54
2022/06/15 06:23:34;;;;;;;10.43;3.20;;;17.90;99.90;;;;;;4840901;29;20193;-52
2022/06/15 06:26:01;;;;;;;8.87;3.83;;;18.00;99.90;;;;;;4837890;29;20233;-61
2022/06/15 06:28:38;;;;;;;8.50;3.27;;;18.10;99.90;;;;;;4838231;29;20238;-60
2022/06/15 06:31:05;;;;;;;11.43;3.40;;;18.20;99.90;;;;;;4835552;29;20277;-63
2022/06/15 06:33:34;;;;;;;13.63;3.50;;;18.10;99.90;;;;;;4840063;29;20208;-65
2022/06/15 06:36:07;;;;;;;11.97;3.33;;;17.90;99.90;;;;;;4808056;29;20204;-63
2022/06/15 06:38:34;;;;;;;13.77;3.53;;;17.80;99.90;;;;;;4839817;29;20198;-64
2022/06/15 06:41:00;;;;;;;8.43;3.20;;;17.80;99.90;;;;;;4841783;29;20651;-64
2022/06/15 06:43:26;;;;;;;7.60;3.10;;;17.70;99.90;;;;;;4837564;29;20222;-60
2022/06/15 06:45:52;;;;;;;7.20;3.70;;;17.60;99.90;;;;;;4840645;29;20225;-61
2022/06/15 06:48:18;;;;;;;10.93;3.17;;;17.80;99.90;;;;;;4822684;29;20267;-60
2022/06/15 06:50:44;;;;;;;6.23;2.73;;;18.00;99.90;;;;;;4823634;29;20584;-60
2022/06/15 06:53:12;;;;;;;8.13;3.13;;;17.90;99.90;;;;;;4824183;29;20190;-60
2022/06/15 06:55:38;;;;;;;12.80;3.93;;;18.10;99.90;;;;;;4823880;29;20201;-59
2022/06/15 06:58:04;;;;;;;8.40;3.10;;;18.20;99.90;;;;;;4823123;29;20191;-61
2022/06/15 07:00:33;;;;;;;11.70;3.27;;;18.30;99.90;;;;;;4823495;29;20207;-59
2022/06/15 07:03:01;;;;;;;11.33;3.47;;;18.40;99.90;;;;;;4823660;29;20270;-60
2022/06/15 07:05:27;;;;;;;8.93;3.23;;;18.30;99.90;;;;;;4823486;29;20215;-60
2022/06/15 07:07:53;;;;;;;10.10;3.33;;;18.20;99.90;;;;;;4823704;29;20190;-61
2022/06/15 07:10:19;;;;;;;28.27;4.67;;;18.20;99.90;;;;;;4829900;29;20238;-60
2022/06/15 07:12:45;;;;;;;12.97;3.63;;;18.10;99.90;;;;;;4842229;29;20190;-61
2022/06/15 07:15:12;;;;;;;9.77;2.60;;;18.10;99.90;;;;;;4842269;29;20220;-62
2022/06/15 07:17:39;;;;;;;8.20;3.30;;;18.10;99.90;;;;;;4841660;29;20554;-60
2022/06/15 07:20:05;;;;;;;7.17;3.43;;;18.20;99.90;;;;;;4842073;29;20202;-61
2022/06/15 07:22:31;;;;;;;12.80;3.77;;;18.30;99.90;;;;;;4841370;29;20190;-62
2022/06/15 07:24:57;;;;;;;10.83;3.50;;;18.40;99.50;;;;;;4841735;29;20308;-62
2022/06/15 07:27:23;;;;;;;9.47;3.07;;;18.60;98.60;;;;;;4841646;29;20202;-61
2022/06/15 07:29:50;;;;;;;10.20;3.07;;;18.60;97.50;;;;;;4856300;29;20197;-62
2022/06/15 07:32:16;;;;;;;13.53;3.60;;;18.50;97.90;;;;;;4859690;29;20185;-59
2022/06/15 07:34:43;;;;;;;11.50;3.03;;;18.40;98.40;;;;;;4860003;29;20208;-59
2022/06/15 07:37:10;;;;;;;5.40;2.70;;;18.50;98.00;;;;;;4860041;29;20200;-61
2022/06/15 07:39:37;;;;;;;7.73;2.87;;;18.70;97.80;;;;;;4859708;29;20189;-60
2022/06/15 07:42:08;;;;;;;6.93;3.23;;;18.70;97.40;;;;;;4859525;29;20365;-59
2022/06/15 07:44:35;;;;;;;6.97;2.87;;;18.90;97.30;;;;;;4859439;29;20189;-62
2022/06/15 07:49:56;;;;;;;8.55;3.45;;;19.90;95.70;;;;;;4841455;29;20273;-58
2022/06/15 07:52:36;;;;;;;8.73;2.72;;;20.40;94.40;;;;;;4824850;29;20604;-60
2022/06/15 07:55:04;;;;;;;8.02;3.47;;;20.40;93.90;;;;;;4840890;29;20196;-62
2022/06/15 07:57:30;;;;;;;6.40;2.75;;;20.60;94.10;;;;;;4840684;29;20189;-65
2022/06/15 07:59:56;;;;;;;15.13;3.63;;;20.40;93.60;;;;;;4840721;29;20206;-69
2022/06/15 08:02:22;;;;;;;10.15;3.28;;;20.60;93.40;;;;;;4840626;29;20194;-64
2022/06/15 08:04:48;;;;;;;9.50;3.00;;;21.10;93.00;;;;;;4840902;29;20218;-63
2022/06/15 08:07:16;;;;;;;10.68;2.85;;;21.20;91.10;;;;;;4824909;29;20298;-61
2022/06/15 08:09:43;;;;;;;5.82;2.72;;;21.30;91.00;;;;;;4840791;29;20698;-59
2022/06/15 08:12:18;;;;;;;7.07;2.47;;;21.40;89.60;;;;;;4840688;29;20194;-59
2022/06/15 08:14:48;;;;;;;8.60;2.60;;;20.80;90.00;;;;;;4840756;29;20190;-59
2022/06/15 08:17:26;;;;;;;8.38;2.70;;;20.40;90.90;;;;;;4839957;29;20265;-61
2022/06/15 08:19:59;;;;;;;7.40;2.67;;;20.00;91.00;;;;;;4840335;29;20221;-61
2022/06/15 08:22:26;;;;;;;6.03;2.28;;;19.70;92.10;;;;;;4840303;29;20223;-61
2022/06/15 08:24:52;;;;;;;9.05;3.65;;;19.60;92.00;;;;;;4823654;29;20226;-59
2022/06/15 08:27:21;;;;;;;7.82;3.30;;;19.50;93.10;;;;;;4840549;29;20559;-59
2022/06/15 08:29:48;;;;;;;7.55;3.72;;;19.80;93.40;;;;;;4873082;29;20279;-63
2022/06/15 08:32:15;;;;;;;10.63;3.35;;;19.70;92.90;;;;;;4877419;29;20181;-61
2022/06/15 08:34:41;;;;;;;11.40;4.07;;;19.60;93.00;;;;;;4876758;29;20660;-59
2022/06/15 08:37:09;;;;;;;7.72;3.00;;;19.80;92.80;;;;;;4877266;29;20279;-56
2022/06/15 08:39:36;;;;;;;9.85;2.72;;;20.00;92.50;;;;;;4876557;29;20262;-59
2022/06/15 08:42:23;;;;;;;10.80;3.30;;;20.20;92.10;;;;;;4876326;29;20669;-55
2022/06/15 08:44:53;;;;;;;9.25;2.70;;;20.40;91.90;;;;;;4844172;29;20309;-60
2022/06/15 08:47:31;;;;;;;9.77;2.78;;;20.00;91.80;;;;;;4851614;29;20189;-58
2022/06/15 08:50:06;;;;;;;13.45;4.00;;;19.80;91.90;;;;;;4857756;29;20612;-60
2022/06/15 08:52:44;;;;;;;10.07;2.70;;;20.10;92.20;;;;;;4857528;29;20193;-56
2022/06/15 08:55:16;;;;;;;11.40;2.88;;;20.40;91.40;;;;;;4858964;29;20196;-55
2022/06/15 08:57:57;;;;;;;8.00;3.28;;;20.30;90.30;;;;;;4841421;29;20824;-56
2022/06/15 09:00:32;;;;;;;4.50;2.22;;;20.50;91.10;;;;;;4858688;29;20192;-52
2022/06/15 09:03:29;;;;;;;17.35;3.58;;;20.60;89.30;;;;;;4842158;29;20230;-54
2022/06/15 09:06:23;;;;;;;4.82;2.35;;;20.80;90.00;;;;;;4858417;29;20231;-59
2022/06/15 09:09:02;;;;;;;5.60;2.78;;;21.10;88.30;;;;;;4858392;29;20193;-55
2022/06/15 09:12:49;;;;;;;7.82;2.40;;;20.90;88.30;;;;;;4858139;29;20189;-56
2022/06/15 09:14:53;;;;;;;9.68;3.30;;;20.80;89.70;;;;;;4857309;29;20567;-57
2022/06/15 09:17:24;;;;;;;7.05;2.83;;;21.10;89.30;;;;;;4858087;29;20550;-57
2022/06/15 09:20:09;;;;;;;7.45;2.47;;;21.20;86.50;;;;;;4858084;29;20308;-56
2022/06/15 09:22:42;;;;;;;7.57;2.50;;;21.40;86.50;;;;;;4857187;29;20203;-55
2022/06/15 09:25:15;;;;;;;12.98;2.90;;;21.60;85.00;;;;;;4858159;29;20227;-56
2022/06/15 09:28:01;;;;;;;6.05;2.70;;;21.90;84.30;;;;;;4840966;29;20233;-57
2022/06/15 09:30:31;;;;;;;8.68;3.15;;;22.50;81.70;;;;;;4840005;29;20333;-57
2022/06/15 09:33:02;;;;;;;10.93;4.40;;;22.60;80.10;;;;;;4839656;29;20293;-58
2022/06/15 09:35:41;;;;;;;10.70;3.20;;;23.00;79.40;;;;;;4839316;29;20319;-60
2022/06/15 09:38:12;;;;;;;8.30;3.42;;;23.10;79.10;;;;;;4839378;29;20233;-59
2022/06/15 09:40:51;;;;;;;8.15;2.55;;;23.00;77.60;;;;;;4839577;29;20745;-54
2022/06/15 09:43:43;;;;;;;10.35;3.00;;;22.90;77.00;;;;;;4839334;29;20610;-57
2022/06/15 09:46:22;;;;;;;7.85;4.15;;;22.30;77.10;;;;;;4842255;29;20216;-58
2022/06/15 09:49:21;;;;;;;17.95;5.43;;;22.10;78.10;;;;;;4857884;29;20213;-55
2022/06/15 09:51:57;;;;;;;13.68;3.95;;;22.30;77.20;;;;;;4857490;29;20181;-55
2022/06/15 09:54:49;;;;;;;4.20;2.60;;;22.50;76.70;;;;;;4858063;29;20185;-55
2022/06/15 09:57:15;;;;;;;7.38;2.30;;;22.30;75.10;;;;;;4849793;29;20227;-54
2022/06/15 09:59:42;;;;;;;15.77;4.30;;;22.10;78.50;;;;;;4857088;29;20180;-56
2022/06/15 10:02:19;;;;;;;4.20;2.58;;;22.50;77.60;;;;;;4841147;29;20668;-53
2022/06/15 10:04:44;;;;;;;11.60;3.35;;;23.10;75.00;;;;;;4840672;29;20247;-55
2022/06/15 10:07:16;;;;;;;5.72;2.42;;;23.10;74.40;;;;;;4857609;29;20229;-55
2022/06/15 10:09:50;;;;;;;9.13;3.25;;;23.40;73.10;;;;;;4840593;29;20506;-56
2022/06/15 10:15:34;;;;;;;13.48;3.80;;;23.80;70.80;;;;;;4857464;29;20282;-52
2022/06/15 10:18:14;;;;;;;6.72;2.65;;;24.20;69.90;;;;;;4857416;29;20189;-56
2022/06/15 10:20:41;;;;;;;7.68;2.53;;;24.30;67.90;;;;;;4857235;29;20216;-55
2022/06/15 10:23:33;;;;;;;10.50;2.80;;;24.40;67.40;;;;;;4841068;29;20212;-56
2022/06/15 10:25:59;;;;;;;7.10;2.85;;;24.60;66.50;;;;;;4857626;29;20213;-56
2022/06/15 10:28:40;;;;;;;8.43;2.65;;;24.70;65.80;;;;;;4844522;29;20239;-57
2022/06/15 10:31:16;;;;;;;5.03;2.47;;;24.90;65.30;;;;;;4875545;29;20230;-55
2022/06/15 10:33:46;;;;;;;5.38;2.10;;;24.60;64.80;;;;;;4878273;29;20262;-55
2022/06/15 10:36:38;;;;;;;5.22;2.40;;;24.80;64.50;;;;;;4879210;29;20188;-57
2022/06/15 10:39:19;;;;;;;10.55;3.20;;;24.60;64.00;;;;;;4871303;29;20287;-52
2022/06/15 10:41:45;;;;;;;7.85;2.72;;;25.20;64.40;;;;;;4879456;29;20252;-56
2022/06/15 10:44:15;;;;;;;10.52;3.63;;;25.50;63.70;;;;;;4878906;29;20184;-57
2022/06/15 10:47:02;;;;;;;7.95;2.25;;;25.60;62.40;;;;;;4870702;29;20235;-56
2022/06/15 10:49:41;;;;;;;4.93;1.88;;;25.60;60.50;;;;;;4861098;29;20225;-56
2022/06/15 10:52:38;;;;;;;8.05;2.30;;;25.40;61.90;;;;;;4843994;29;20226;-55
2022/06/15 11:04:52;;;;;;;8.63;2.50;;;24.80;62.30;;;;;;4860500;29;20192;-56
2022/06/15 11:07:21;;;;;;;5.55;2.25;;;24.50;64.00;;;;;;4851234;29;20301;-55
2022/06/15 11:09:56;;;;;;;5.90;2.17;;;24.90;62.10;;;;;;4859865;29;20185;-58
2022/06/15 11:12:30;;;;;;;6.55;2.75;;;25.00;61.30;;;;;;4860537;29;20181;-55
2022/06/15 11:15:03;;;;;;;7.43;2.20;;;24.90;61.60;;;;;;4859764;29;20628;-56
2022/06/15 11:20:32;;;;;;;8.57;2.38;;;25.70;59.50;;;;;;4860545;29;20694;-56
2022/06/15 11:23:12;;;;;;;3.88;2.03;;;25.50;58.40;;;;;;4843498;29;20196;-56
2022/06/15 11:26:01;;;;;;;4.78;2.20;;;24.40;60.40;;;;;;4860031;29;20307;-56
2022/06/15 11:28:36;;;;;;;7.05;1.90;;;24.10;61.10;;;;;;4854634;29;20229;-59
2022/06/15 11:31:10;;;;;;;6.68;2.40;;;24.80;62.90;;;;;;4859718;29;20192;-56
2022/06/15 11:33:44;;;;;;;4.32;1.95;;;25.80;58.90;;;;;;4843390;29;20188;-60
2022/06/15 11:36:41;;;;;;;10.45;2.65;;;26.30;57.40;;;;;;4860431;29;20192;-55
2022/06/15 11:39:12;;;;;;;7.75;2.42;;;27.90;56.70;;;;;;4860076;29;20534;-55
2022/06/15 11:41:44;;;;;;;5.05;2.10;;;28.90;53.50;;;;;;4859866;29;20185;-57
2022/06/15 11:44:21;;;;;;;4.07;2.20;;;28.70;51.80;;;;;;4858818;29;20193;-57
2022/06/15 11:47:06;;;;;;;3.65;2.05;;;29.20;53.00;;;;;;4850442;29;20233;-58
2022/06/15 11:49:54;;;;;;;8.13;2.17;;;28.60;52.30;;;;;;4841500;29;20212;-61
2022/06/15 11:52:40;;;;;;;6.32;2.45;;;29.30;52.70;;;;;;4841285;29;20209;-54
2022/06/15 11:55:14;;;;;;;5.15;2.05;;;29.80;51.80;;;;;;4841371;29;20186;-53
2022/06/15 11:57:40;;;;;;;7.18;2.72;;;29.40;50.80;;;;;;4840933;29;20182;-56
2022/06/15 12:00:25;;;;;;;7.25;2.65;;;28.60;52.00;;;;;;4840616;29;20182;-56
2022/06/15 12:03:17;;;;;;;8.00;2.42;;;28.20;51.80;;;;;;4840585;29;20189;-56
2022/06/15 12:06:07;;;;;;;10.45;2.40;;;28.60;52.30;;;;;;4839590;29;20651;-57
2022/06/15 12:09:04;;;;;;;10.27;2.47;;;29.10;51.30;;;;;;4802996;29;20217;-58
2022/06/15 12:15:12;;;;;;;12.27;3.47;;;27.20;54.00;;;;;;4840358;29;20200;-60
2022/06/15 12:18:07;;;;;;;11.80;5.35;;;26.90;55.00;;;;;;4840441;29;20277;-63
2022/06/15 12:21:00;;;;;;;10.43;3.03;;;26.10;55.20;;;;;;4824191;29;20198;-58
2022/06/15 12:23:56;;;;;;;7.45;2.53;;;25.70;55.70;;;;;;4818921;29;20236;-53
2022/06/15 12:26:30;;;;;;;6.88;2.25;;;25.10;56.20;;;;;;4840628;29;20278;-57
2022/06/15 12:29:39;;;;;;;8.30;2.47;;;25.20;57.50;;;;;;4840282;29;20238;-56
2022/06/15 12:32:33;;;;;;;6.72;2.28;;;27.00;55.20;;;;;;4840718;29;20613;-57
2022/06/15 12:35:10;;;;;;;3.80;1.92;;;28.80;53.70;;;;;;4839289;29;20228;-58
2022/06/15 12:38:03;;;;;;;5.18;1.95;;;28.80;50.00;;;;;;4833793;29;20200;-57
2022/06/15 12:40:41;;;;;;;8.07;2.97;;;27.50;51.30;;;;;;4816155;29;20317;-58
2022/06/15 12:43:25;;;;;;;3.38;1.95;;;27.30;53.90;;;;;;4838798;29;20289;-53
2022/06/15 12:45:58;;;;;;;9.85;3.00;;;26.60;53.20;;;;;;4834716;29;20266;-57
2022/06/15 12:48:53;;;;;;;4.43;2.70;;;26.10;55.10;;;;;;4839681;29;20726;-56
2022/06/15 12:51:42;;;;;;;10.35;2.60;;;25.70;55.10;;;;;;4815493;29;20723;-56
2022/06/15 12:54:34;;;;;;;15.13;3.60;;;25.50;56.30;;;;;;4813840;29;20198;-57
2022/06/15 12:57:14;;;;;;;5.78;2.15;;;25.30;56.50;;;;;;4808121;29;20236;-58
2022/06/15 12:59:49;;;;;;;7.00;2.42;;;24.60;57.20;;;;;;4822216;29;20190;-60
2022/06/15 13:02:24;;;;;;;10.23;2.47;;;24.20;58.30;;;;;;4828618;29;20279;-56
2022/06/15 13:05:06;;;;;;;5.28;2.58;;;24.50;59.40;;;;;;4837127;29;20508;-55
2022/06/15 13:07:35;;;;;;;7.57;2.65;;;25.10;57.90;;;;;;4821450;29;20199;-58
2022/06/15 13:10:07;;;;;;;5.22;2.40;;;25.70;56.20;;;;;;4825357;29;20312;-56
2022/06/15 13:12:50;;;;;;;6.78;2.30;;;26.60;56.80;;;;;;4839864;29;20202;-56
2022/06/15 13:15:24;;;;;;;5.63;2.58;;;29.00;53.30;;;;;;4829224;29;20715;-58
2022/06/15 13:18:18;;;;;;;12.82;4.30;;;31.80;49.20;;;;;;4837158;29;20215;-56
2022/06/15 13:20:46;;;;;;;7.97;2.58;;;33.80;46.00;;;;;;4827407;29;20231;-56
2022/06/15 13:23:24;;;;;;;12.95;3.10;;;35.60;43.60;;;;;;4821257;29;20197;-58
2022/06/15 13:25:56;;;;;;;8.30;2.50;;;35.50;41.30;;;;;;4833795;29;20359;-54
2022/06/15 13:28:24;;;;;;;9.02;3.08;;;34.40;40.70;;;;;;4805032;29;20242;-55
2022/06/15 13:30:54;;;;;;;8.13;2.75;;;33.30;41.90;;;;;;4821520;29;20186;-58
2022/06/15 13:33:40;;;;;;;7.07;2.28;;;33.00;43.80;;;;;;4825509;29;20201;-55
2022/06/15 13:36:12;;;;;;;8.30;1.98;;;32.20;43.10;;;;;;4825688;29;20625;-58